sensor_id;sensor_type;location;lat;lon;timestamp;P1;durP1;ratioP1;P2;durP2;ratioP2
57327;SDS011;43162;51.040;18.244;2023-07-13T00:00:10;13.50;;;6.90;;
57327;SDS011;43162;51.040;18.244;2023-07-13T00:02:36;12.50;;;7.80;;
57327;SDS011;43162;51.040;18.244;2023-07-13T00:05:02;17.30;;;7.50;;
57327;SDS011;43162;51.040;18.244;2023-07-13T00:07:28;12.20;;;6.50;;
57327;SDS011;43162;51.040;18.244;2023-07-13T00:09:53;13.90;;;7.00;;
57327;SDS011;43162;51.040;18.244;2023-07-13T00:12:27;14.80;;;7.40;;
57327;SDS011;43162;51.040;18.244;2023-07-13T00:14:55;8.10;;;6.90;;
57327;SDS011;43162;51.040;18.244;2023-07-13T00:17:21;11.20;;;7.80;;
57327;SDS011;43162;51.040;18.244;2023-07-13T00:19:47;11.40;;;6.90;;
57327;SDS011;43162;51.040;18.244;2023-07-13T00:22:13;15.00;;;7.00;;
57327;SDS011;43162;51.040;18.244;2023-07-13T00:24:38;9.00;;;7.20;;
57327;SDS011;43162;51.040;18.244;2023-07-13T00:27:10;10.80;;;7.30;;
57327;SDS011;43162;51.040;18.244;2023-07-13T00:29:35;14.00;;;6.50;;
57327;SDS011;43162;51.040;18.244;2023-07-13T00:32:02;14.10;;;7.10;;
57327;SDS011;43162;51.040;18.244;2023-07-13T00:34:28;15.40;;;6.70;;
57327;SDS011;43162;51.040;18.244;2023-07-13T00:36:54;12.60;;;6.40;;
57327;SDS011;43162;51.040;18.244;2023-07-13T00:39:20;15.90;;;6.30;;
57327;SDS011;43162;51.040;18.244;2023-07-13T00:41:46;16.30;;;6.90;;
57327;SDS011;43162;51.040;18.244;2023-07-13T00:44:15;15.70;;;7.10;;
57327;SDS011;43162;51.040;18.244;2023-07-13T00:46:41;13.50;;;6.80;;
57327;SDS011;43162;51.040;18.244;2023-07-13T00:49:13;23.50;;;6.70;;
57327;SDS011;43162;51.040;18.244;2023-07-13T00:51:40;17.30;;;7.10;;
57327;SDS011;43162;51.040;18.244;2023-07-13T00:54:15;24.70;;;7.60;;
57327;SDS011;43162;51.040;18.244;2023-07-13T00:56:43;18.00;;;7.50;;
57327;SDS011;43162;51.040;18.244;2023-07-13T00:59:10;16.80;;;7.00;;
57327;SDS011;43162;51.040;18.244;2023-07-13T01:01:36;12.60;;;7.20;;
57327;SDS011;43162;51.040;18.244;2023-07-13T01:04:02;17.40;;;7.00;;
57327;SDS011;43162;51.040;18.244;2023-07-13T01:06:28;14.90;;;6.80;;
57327;SDS011;43162;51.040;18.244;2023-07-13T01:08:54;19.80;;;7.10;;
57327;SDS011;43162;51.040;18.244;2023-07-13T01:11:20;16.00;;;6.60;;
57327;SDS011;43162;51.040;18.244;2023-07-13T01:13:47;11.10;;;6.90;;
57327;SDS011;43162;51.040;18.244;2023-07-13T01:16:15;12.30;;;6.70;;
57327;SDS011;43162;51.040;18.244;2023-07-13T01:18:41;14.00;;;7.40;;
57327;SDS011;43162;51.040;18.244;2023-07-13T01:21:06;13.20;;;7.00;;
57327;SDS011;43162;51.040;18.244;2023-07-13T01:23:32;14.90;;;6.70;;
57327;SDS011;43162;51.040;18.244;2023-07-13T01:25:58;12.50;;;6.50;;
57327;SDS011;43162;51.040;18.244;2023-07-13T01:28:24;13.10;;;6.40;;
57327;SDS011;43162;51.040;18.244;2023-07-13T01:30:52;14.40;;;6.60;;
57327;SDS011;43162;51.040;18.244;2023-07-13T01:33:18;13.00;;;6.70;;
57327;SDS011;43162;51.040;18.244;2023-07-13T01:35:44;13.50;;;7.70;;
57327;SDS011;43162;51.040;18.244;2023-07-13T01:38:11;10.40;;;7.10;;
57327;SDS011;43162;51.040;18.244;2023-07-13T01:40:37;13.70;;;7.10;;
57327;SDS011;43162;51.040;18.244;2023-07-13T01:43:03;13.40;;;6.80;;
57327;SDS011;43162;51.040;18.244;2023-07-13T01:45:29;18.80;;;6.80;;
57327;SDS011;43162;51.040;18.244;2023-07-13T01:47:54;12.30;;;6.00;;
57327;SDS011;43162;51.040;18.244;2023-07-13T01:50:20;11.00;;;6.00;;
57327;SDS011;43162;51.040;18.244;2023-07-13T01:52:45;13.80;;;6.20;;
57327;SDS011;43162;51.040;18.244;2023-07-13T01:55:11;10.40;;;6.10;;
57327;SDS011;43162;51.040;18.244;2023-07-13T01:57:36;8.20;;;5.80;;
57327;SDS011;43162;51.040;18.244;2023-07-13T02:00:05;10.50;;;6.00;;
57327;SDS011;43162;51.040;18.244;2023-07-13T02:02:32;7.90;;;6.00;;
57327;SDS011;43162;51.040;18.244;2023-07-13T02:04:57;15.10;;;6.30;;
57327;SDS011;43162;51.040;18.244;2023-07-13T02:07:23;10.30;;;5.60;;
57327;SDS011;43162;51.040;18.244;2023-07-13T02:09:49;14.30;;;6.70;;
57327;SDS011;43162;51.040;18.244;2023-07-13T02:12:14;13.60;;;6.50;;
57327;SDS011;43162;51.040;18.244;2023-07-13T02:14:39;10.40;;;6.10;;
57327;SDS011;43162;51.040;18.244;2023-07-13T02:17:05;17.00;;;6.60;;
57327;SDS011;43162;51.040;18.244;2023-07-13T02:19:31;12.60;;;6.50;;
57327;SDS011;43162;51.040;18.244;2023-07-13T02:21:57;11.00;;;6.30;;
57327;SDS011;43162;51.040;18.244;2023-07-13T02:24:22;12.00;;;6.80;;
57327;SDS011;43162;51.040;18.244;2023-07-13T02:26:47;8.60;;;6.90;;
57327;SDS011;43162;51.040;18.244;2023-07-13T02:29:13;16.40;;;7.40;;
57327;SDS011;43162;51.040;18.244;2023-07-13T02:31:38;14.70;;;7.80;;
57327;SDS011;43162;51.040;18.244;2023-07-13T02:34:04;13.30;;;7.00;;
57327;SDS011;43162;51.040;18.244;2023-07-13T02:36:30;12.40;;;6.60;;
57327;SDS011;43162;51.040;18.244;2023-07-13T02:38:57;11.00;;;6.30;;
57327;SDS011;43162;51.040;18.244;2023-07-13T02:41:22;12.20;;;6.90;;
57327;SDS011;43162;51.040;18.244;2023-07-13T02:43:48;17.50;;;7.70;;
57327;SDS011;43162;51.040;18.244;2023-07-13T02:46:14;15.40;;;7.30;;
57327;SDS011;43162;51.040;18.244;2023-07-13T02:48:39;14.10;;;7.70;;
57327;SDS011;43162;51.040;18.244;2023-07-13T02:51:05;15.80;;;7.70;;
57327;SDS011;43162;51.040;18.244;2023-07-13T02:53:31;18.60;;;7.70;;
57327;SDS011;43162;51.040;18.244;2023-07-13T02:55:57;18.20;;;7.90;;
57327;SDS011;43162;51.040;18.244;2023-07-13T02:58:22;21.40;;;7.60;;
57327;SDS011;43162;51.040;18.244;2023-07-13T03:00:49;17.90;;;7.80;;
57327;SDS011;43162;51.040;18.244;2023-07-13T03:03:15;21.70;;;7.70;;
57327;SDS011;43162;51.040;18.244;2023-07-13T03:05:42;15.90;;;7.30;;
57327;SDS011;43162;51.040;18.244;2023-07-13T03:08:08;17.80;;;7.20;;
57327;SDS011;43162;51.040;18.244;2023-07-13T03:10:34;20.40;;;7.40;;
57327;SDS011;43162;51.040;18.244;2023-07-13T03:12:59;13.40;;;7.50;;
57327;SDS011;43162;51.040;18.244;2023-07-13T03:15:24;15.40;;;6.90;;
57327;SDS011;43162;51.040;18.244;2023-07-13T03:17:50;16.20;;;8.00;;
57327;SDS011;43162;51.040;18.244;2023-07-13T03:20:16;12.20;;;7.10;;
57327;SDS011;43162;51.040;18.244;2023-07-13T03:22:41;14.20;;;6.50;;
57327;SDS011;43162;51.040;18.244;2023-07-13T03:25:07;13.30;;;7.00;;
57327;SDS011;43162;51.040;18.244;2023-07-13T03:27:33;12.20;;;7.30;;
57327;SDS011;43162;51.040;18.244;2023-07-13T03:29:58;12.40;;;6.80;;
57327;SDS011;43162;51.040;18.244;2023-07-13T03:32:24;11.70;;;6.90;;
57327;SDS011;43162;51.040;18.244;2023-07-13T03:34:49;12.00;;;6.40;;
57327;SDS011;43162;51.040;18.244;2023-07-13T03:37:15;12.10;;;7.00;;
57327;SDS011;43162;51.040;18.244;2023-07-13T03:39:40;10.60;;;7.20;;
57327;SDS011;43162;51.040;18.244;2023-07-13T03:42:06;13.40;;;6.60;;
57327;SDS011;43162;51.040;18.244;2023-07-13T03:44:31;11.10;;;6.00;;
57327;SDS011;43162;51.040;18.244;2023-07-13T03:46:57;17.70;;;7.40;;
57327;SDS011;43162;51.040;18.244;2023-07-13T03:49:22;14.30;;;6.50;;
57327;SDS011;43162;51.040;18.244;2023-07-13T03:51:48;13.60;;;6.30;;
57327;SDS011;43162;51.040;18.244;2023-07-13T03:54:14;13.90;;;6.10;;
57327;SDS011;43162;51.040;18.244;2023-07-13T03:56:40;14.30;;;6.10;;
57327;SDS011;43162;51.040;18.244;2023-07-13T03:59:06;9.20;;;5.90;;
57327;SDS011;43162;51.040;18.244;2023-07-13T04:01:33;11.10;;;5.70;;
57327;SDS011;43162;51.040;18.244;2023-07-13T04:03:59;10.90;;;5.60;;
57327;SDS011;43162;51.040;18.244;2023-07-13T04:06:28;16.80;;;5.40;;
57327;SDS011;43162;51.040;18.244;2023-07-13T04:08:55;8.40;;;5.30;;
57327;SDS011;43162;51.040;18.244;2023-07-13T04:11:22;7.40;;;5.60;;
57327;SDS011;43162;51.040;18.244;2023-07-13T04:13:48;15.20;;;5.50;;
57327;SDS011;43162;51.040;18.244;2023-07-13T04:16:14;11.80;;;6.20;;
57327;SDS011;43162;51.040;18.244;2023-07-13T04:18:40;19.20;;;5.90;;
57327;SDS011;43162;51.040;18.244;2023-07-13T04:21:06;16.40;;;5.50;;
57327;SDS011;43162;51.040;18.244;2023-07-13T04:23:32;10.10;;;4.80;;
57327;SDS011;43162;51.040;18.244;2023-07-13T04:25:58;6.50;;;5.10;;
57327;SDS011;43162;51.040;18.244;2023-07-13T04:28:24;11.30;;;4.80;;
57327;SDS011;43162;51.040;18.244;2023-07-13T04:30:50;6.40;;;4.60;;
57327;SDS011;43162;51.040;18.244;2023-07-13T04:33:16;6.60;;;4.30;;
57327;SDS011;43162;51.040;18.244;2023-07-13T04:35:48;7.60;;;4.30;;
57327;SDS011;43162;51.040;18.244;2023-07-13T04:38:14;10.20;;;5.00;;
57327;SDS011;43162;51.040;18.244;2023-07-13T04:40:47;10.90;;;5.20;;
57327;SDS011;43162;51.040;18.244;2023-07-13T04:43:13;9.20;;;4.90;;
57327;SDS011;43162;51.040;18.244;2023-07-13T04:45:39;7.80;;;5.00;;
57327;SDS011;43162;51.040;18.244;2023-07-13T04:48:04;9.20;;;5.00;;
57327;SDS011;43162;51.040;18.244;2023-07-13T04:50:31;10.10;;;5.50;;
57327;SDS011;43162;51.040;18.244;2023-07-13T04:52:56;17.00;;;5.30;;
57327;SDS011;43162;51.040;18.244;2023-07-13T04:55:22;10.50;;;5.50;;
57327;SDS011;43162;51.040;18.244;2023-07-13T04:57:47;11.20;;;5.40;;
57327;SDS011;43162;51.040;18.244;2023-07-13T05:00:13;10.20;;;5.40;;
57327;SDS011;43162;51.040;18.244;2023-07-13T05:02:43;9.90;;;5.50;;
57327;SDS011;43162;51.040;18.244;2023-07-13T05:05:09;8.00;;;5.60;;
57327;SDS011;43162;51.040;18.244;2023-07-13T05:07:34;7.70;;;5.80;;
57327;SDS011;43162;51.040;18.244;2023-07-13T05:10:00;13.30;;;6.40;;
57327;SDS011;43162;51.040;18.244;2023-07-13T05:12:26;7.70;;;5.20;;
57327;SDS011;43162;51.040;18.244;2023-07-13T05:14:52;8.40;;;5.40;;
57327;SDS011;43162;51.040;18.244;2023-07-13T05:17:17;10.50;;;5.90;;
57327;SDS011;43162;51.040;18.244;2023-07-13T05:19:43;10.40;;;6.10;;
57327;SDS011;43162;51.040;18.244;2023-07-13T05:22:08;8.50;;;5.70;;
57327;SDS011;43162;51.040;18.244;2023-07-13T05:24:34;13.90;;;6.50;;
57327;SDS011;43162;51.040;18.244;2023-07-13T05:26:59;16.30;;;6.10;;
57327;SDS011;43162;51.040;18.244;2023-07-13T05:29:25;14.70;;;7.00;;
57327;SDS011;43162;51.040;18.244;2023-07-13T05:31:50;14.50;;;7.20;;
57327;SDS011;43162;51.040;18.244;2023-07-13T05:34:16;14.60;;;6.90;;
57327;SDS011;43162;51.040;18.244;2023-07-13T05:36:42;12.10;;;7.40;;
57327;SDS011;43162;51.040;18.244;2023-07-13T05:39:08;10.10;;;7.50;;
57327;SDS011;43162;51.040;18.244;2023-07-13T05:41:35;13.40;;;7.60;;
57327;SDS011;43162;51.040;18.244;2023-07-13T05:44:01;10.80;;;7.60;;
57327;SDS011;43162;51.040;18.244;2023-07-13T05:46:26;15.60;;;8.30;;
57327;SDS011;43162;51.040;18.244;2023-07-13T05:48:52;10.10;;;8.70;;
57327;SDS011;43162;51.040;18.244;2023-07-13T05:51:17;13.60;;;8.60;;
57327;SDS011;43162;51.040;18.244;2023-07-13T05:53:43;11.00;;;8.60;;
57327;SDS011;43162;51.040;18.244;2023-07-13T05:56:08;15.10;;;9.10;;
57327;SDS011;43162;51.040;18.244;2023-07-13T05:58:34;9.10;;;7.40;;
57327;SDS011;43162;51.040;18.244;2023-07-13T06:01:01;12.60;;;7.90;;
57327;SDS011;43162;51.040;18.244;2023-07-13T06:03:27;14.70;;;7.50;;
57327;SDS011;43162;51.040;18.244;2023-07-13T06:05:52;12.90;;;7.40;;
57327;SDS011;43162;51.040;18.244;2023-07-13T06:08:18;8.20;;;7.10;;
57327;SDS011;43162;51.040;18.244;2023-07-13T06:10:43;10.30;;;7.80;;
57327;SDS011;43162;51.040;18.244;2023-07-13T06:13:09;7.70;;;5.10;;
57327;SDS011;43162;51.040;18.244;2023-07-13T06:15:34;5.50;;;3.90;;
57327;SDS011;43162;51.040;18.244;2023-07-13T06:18:00;9.10;;;5.00;;
57327;SDS011;43162;51.040;18.244;2023-07-13T06:20:25;5.90;;;3.80;;
57327;SDS011;43162;51.040;18.244;2023-07-13T06:22:51;6.70;;;3.30;;
57327;SDS011;43162;51.040;18.244;2023-07-13T06:25:16;14.00;;;3.90;;
57327;SDS011;43162;51.040;18.244;2023-07-13T06:27:42;10.30;;;3.10;;
57327;SDS011;43162;51.040;18.244;2023-07-13T06:30:08;4.20;;;2.20;;
57327;SDS011;43162;51.040;18.244;2023-07-13T06:32:34;8.60;;;2.30;;
57327;SDS011;43162;51.040;18.244;2023-07-13T06:34:59;4.20;;;2.30;;
57327;SDS011;43162;51.040;18.244;2023-07-13T06:37:25;3.40;;;1.60;;
57327;SDS011;43162;51.040;18.244;2023-07-13T06:39:50;7.80;;;1.50;;
57327;SDS011;43162;51.040;18.244;2023-07-13T06:42:16;10.90;;;2.20;;
57327;SDS011;43162;51.040;18.244;2023-07-13T06:44:41;5.00;;;1.40;;
57327;SDS011;43162;51.040;18.244;2023-07-13T06:47:07;1.40;;;1.20;;
57327;SDS011;43162;51.040;18.244;2023-07-13T06:49:32;2.30;;;1.60;;
57327;SDS011;43162;51.040;18.244;2023-07-13T06:51:58;5.50;;;1.70;;
57327;SDS011;43162;51.040;18.244;2023-07-13T06:54:24;1.50;;;1.00;;
57327;SDS011;43162;51.040;18.244;2023-07-13T06:56:50;2.30;;;1.70;;
57327;SDS011;43162;51.040;18.244;2023-07-13T06:59:15;8.30;;;1.70;;
57327;SDS011;43162;51.040;18.244;2023-07-13T07:01:41;2.10;;;0.90;;
57327;SDS011;43162;51.040;18.244;2023-07-13T07:04:06;4.10;;;1.40;;
57327;SDS011;43162;51.040;18.244;2023-07-13T07:06:32;2.20;;;1.20;;
57327;SDS011;43162;51.040;18.244;2023-07-13T07:08:57;2.50;;;1.50;;
57327;SDS011;43162;51.040;18.244;2023-07-13T07:11:24;5.00;;;1.80;;
57327;SDS011;43162;51.040;18.244;2023-07-13T07:13:51;5.80;;;1.50;;
57327;SDS011;43162;51.040;18.244;2023-07-13T07:16:17;3.80;;;1.00;;
57327;SDS011;43162;51.040;18.244;2023-07-13T07:18:43;3.90;;;1.00;;
57327;SDS011;43162;51.040;18.244;2023-07-13T07:21:08;2.50;;;0.90;;
57327;SDS011;43162;51.040;18.244;2023-07-13T07:23:34;3.70;;;1.30;;
57327;SDS011;43162;51.040;18.244;2023-07-13T07:26:00;4.70;;;1.90;;
57327;SDS011;43162;51.040;18.244;2023-07-13T07:28:25;2.70;;;1.80;;
57327;SDS011;43162;51.040;18.244;2023-07-13T07:30:54;5.90;;;2.30;;
57327;SDS011;43162;51.040;18.244;2023-07-13T07:33:20;4.50;;;2.00;;
57327;SDS011;43162;51.040;18.244;2023-07-13T07:35:45;4.80;;;2.00;;
57327;SDS011;43162;51.040;18.244;2023-07-13T07:38:11;3.00;;;2.00;;
57327;SDS011;43162;51.040;18.244;2023-07-13T07:40:40;4.60;;;1.40;;
57327;SDS011;43162;51.040;18.244;2023-07-13T07:43:06;5.00;;;1.40;;
57327;SDS011;43162;51.040;18.244;2023-07-13T07:45:31;1.40;;;1.30;;
57327;SDS011;43162;51.040;18.244;2023-07-13T07:47:58;4.20;;;1.50;;
57327;SDS011;43162;51.040;18.244;2023-07-13T07:50:25;4.10;;;1.50;;
57327;SDS011;43162;51.040;18.244;2023-07-13T07:52:50;3.90;;;1.70;;
57327;SDS011;43162;51.040;18.244;2023-07-13T07:55:16;2.50;;;1.40;;
57327;SDS011;43162;51.040;18.244;2023-07-13T07:57:41;8.10;;;1.60;;
57327;SDS011;43162;51.040;18.244;2023-07-13T08:00:07;5.50;;;1.60;;
57327;SDS011;43162;51.040;18.244;2023-07-13T08:02:33;4.30;;;1.70;;
57327;SDS011;43162;51.040;18.244;2023-07-13T08:04:58;3.60;;;1.80;;
57327;SDS011;43162;51.040;18.244;2023-07-13T08:07:24;3.80;;;1.80;;
57327;SDS011;43162;51.040;18.244;2023-07-13T08:09:51;4.00;;;1.80;;
57327;SDS011;43162;51.040;18.244;2023-07-13T08:12:17;3.20;;;1.50;;
57327;SDS011;43162;51.040;18.244;2023-07-13T08:14:42;5.50;;;1.80;;
57327;SDS011;43162;51.040;18.244;2023-07-13T08:17:08;9.90;;;1.70;;
57327;SDS011;43162;51.040;18.244;2023-07-13T08:19:33;5.30;;;1.70;;
57327;SDS011;43162;51.040;18.244;2023-07-13T08:21:59;4.70;;;1.90;;
57327;SDS011;43162;51.040;18.244;2023-07-13T08:24:24;3.20;;;1.70;;
57327;SDS011;43162;51.040;18.244;2023-07-13T08:26:50;5.70;;;2.80;;
57327;SDS011;43162;51.040;18.244;2023-07-13T08:29:16;2.00;;;1.80;;
57327;SDS011;43162;51.040;18.244;2023-07-13T08:31:41;2.40;;;1.60;;
57327;SDS011;43162;51.040;18.244;2023-07-13T08:34:07;9.50;;;2.30;;
57327;SDS011;43162;51.040;18.244;2023-07-13T08:36:32;6.50;;;1.80;;
57327;SDS011;43162;51.040;18.244;2023-07-13T08:38:58;3.90;;;1.90;;
57327;SDS011;43162;51.040;18.244;2023-07-13T08:41:23;6.90;;;2.10;;
57327;SDS011;43162;51.040;18.244;2023-07-13T08:43:55;6.50;;;2.20;;
57327;SDS011;43162;51.040;18.244;2023-07-13T08:48:52;4.70;;;1.30;;
57327;SDS011;43162;51.040;18.244;2023-07-13T08:54:19;1.60;;;0.80;;
57327;SDS011;43162;51.040;18.244;2023-07-13T08:56:45;2.30;;;1.00;;
57327;SDS011;43162;51.040;18.244;2023-07-13T08:59:15;4.70;;;1.20;;
57327;SDS011;43162;51.040;18.244;2023-07-13T09:04:30;2.40;;;1.00;;
57327;SDS011;43162;51.040;18.244;2023-07-13T09:12:27;4.80;;;1.40;;
57327;SDS011;43162;51.040;18.244;2023-07-13T09:14:56;5.70;;;1.20;;
57327;SDS011;43162;51.040;18.244;2023-07-13T09:17:32;6.30;;;2.30;;
57327;SDS011;43162;51.040;18.244;2023-07-13T09:20:04;2.40;;;1.40;;
57327;SDS011;43162;51.040;18.244;2023-07-13T09:22:34;4.30;;;1.50;;
57327;SDS011;43162;51.040;18.244;2023-07-13T09:25:05;3.50;;;1.30;;
57327;SDS011;43162;51.040;18.244;2023-07-13T09:27:33;7.80;;;1.80;;
57327;SDS011;43162;51.040;18.244;2023-07-13T09:32:37;3.20;;;1.30;;
57327;SDS011;43162;51.040;18.244;2023-07-13T09:35:11;7.80;;;1.60;;
57327;SDS011;43162;51.040;18.244;2023-07-13T09:37:38;4.50;;;1.50;;
57327;SDS011;43162;51.040;18.244;2023-07-13T09:40:08;4.90;;;1.60;;
57327;SDS011;43162;51.040;18.244;2023-07-13T09:42:36;4.80;;;1.40;;
57327;SDS011;43162;51.040;18.244;2023-07-13T09:45:03;4.50;;;1.60;;
57327;SDS011;43162;51.040;18.244;2023-07-13T09:47:30;6.90;;;0.90;;
57327;SDS011;43162;51.040;18.244;2023-07-13T09:49:57;1.50;;;0.80;;
57327;SDS011;43162;51.040;18.244;2023-07-13T09:52:23;4.30;;;1.40;;
57327;SDS011;43162;51.040;18.244;2023-07-13T09:54:50;1.70;;;1.10;;
57327;SDS011;43162;51.040;18.244;2023-07-13T09:57:18;4.20;;;1.00;;
57327;SDS011;43162;51.040;18.244;2023-07-13T09:59:46;1.90;;;1.00;;
57327;SDS011;43162;51.040;18.244;2023-07-13T10:05:00;2.00;;;0.90;;
57327;SDS011;43162;51.040;18.244;2023-07-13T10:07:26;2.00;;;1.00;;
57327;SDS011;43162;51.040;18.244;2023-07-13T10:09:55;2.40;;;1.20;;
57327;SDS011;43162;51.040;18.244;2023-07-13T10:12:21;1.50;;;1.40;;
57327;SDS011;43162;51.040;18.244;2023-07-13T10:14:50;1.40;;;1.00;;
57327;SDS011;43162;51.040;18.244;2023-07-13T10:17:16;3.00;;;1.40;;
57327;SDS011;43162;51.040;18.244;2023-07-13T10:19:43;4.10;;;1.60;;
57327;SDS011;43162;51.040;18.244;2023-07-13T10:22:17;2.40;;;1.20;;
57327;SDS011;43162;51.040;18.244;2023-07-13T10:24:46;2.30;;;1.40;;
57327;SDS011;43162;51.040;18.244;2023-07-13T10:27:16;2.80;;;1.30;;
57327;SDS011;43162;51.040;18.244;2023-07-13T10:29:44;2.50;;;1.30;;
57327;SDS011;43162;51.040;18.244;2023-07-13T10:32:11;3.00;;;1.20;;
57327;SDS011;43162;51.040;18.244;2023-07-13T10:34:37;3.90;;;1.30;;
57327;SDS011;43162;51.040;18.244;2023-07-13T10:37:05;2.50;;;1.40;;
57327;SDS011;43162;51.040;18.244;2023-07-13T10:39:31;2.30;;;1.40;;
57327;SDS011;43162;51.040;18.244;2023-07-13T10:41:59;2.10;;;1.50;;
57327;SDS011;43162;51.040;18.244;2023-07-13T10:44:26;1.50;;;1.20;;
57327;SDS011;43162;51.040;18.244;2023-07-13T10:46:55;2.80;;;1.30;;
57327;SDS011;43162;51.040;18.244;2023-07-13T10:49:21;1.50;;;1.20;;
57327;SDS011;43162;51.040;18.244;2023-07-13T10:51:47;1.90;;;1.30;;
57327;SDS011;43162;51.040;18.244;2023-07-13T10:54:20;2.00;;;1.10;;
57327;SDS011;43162;51.040;18.244;2023-07-13T10:56:49;2.20;;;1.20;;
57327;SDS011;43162;51.040;18.244;2023-07-13T10:59:16;4.40;;;1.40;;
57327;SDS011;43162;51.040;18.244;2023-07-13T11:04:15;1.00;;;0.80;;
57327;SDS011;43162;51.040;18.244;2023-07-13T11:06:42;3.90;;;1.50;;
57327;SDS011;43162;51.040;18.244;2023-07-13T11:12:01;4.90;;;1.00;;
57327;SDS011;43162;51.040;18.244;2023-07-13T11:14:38;2.30;;;1.20;;
57327;SDS011;43162;51.040;18.244;2023-07-13T11:22:48;1.50;;;0.90;;
57327;SDS011;43162;51.040;18.244;2023-07-13T11:27:46;3.50;;;1.20;;
57327;SDS011;43162;51.040;18.244;2023-07-13T11:30:36;2.00;;;1.00;;
57327;SDS011;43162;51.040;18.244;2023-07-13T11:33:03;4.20;;;1.00;;
57327;SDS011;43162;51.040;18.244;2023-07-13T11:35:33;6.60;;;1.50;;
57327;SDS011;43162;51.040;18.244;2023-07-13T11:38:00;1.40;;;1.00;;
57327;SDS011;43162;51.040;18.244;2023-07-13T11:40:26;4.10;;;1.00;;
57327;SDS011;43162;51.040;18.244;2023-07-13T11:42:58;3.10;;;1.00;;
57327;SDS011;43162;51.040;18.244;2023-07-13T11:45:24;6.40;;;1.30;;
57327;SDS011;43162;51.040;18.244;2023-07-13T11:47:50;3.50;;;1.10;;
57327;SDS011;43162;51.040;18.244;2023-07-13T11:50:19;3.10;;;0.90;;
57327;SDS011;43162;51.040;18.244;2023-07-13T11:52:45;2.00;;;1.00;;
57327;SDS011;43162;51.040;18.244;2023-07-13T11:55:14;3.00;;;1.10;;
57327;SDS011;43162;51.040;18.244;2023-07-13T11:57:45;4.20;;;1.40;;
57327;SDS011;43162;51.040;18.244;2023-07-13T12:00:15;3.70;;;1.10;;
57327;SDS011;43162;51.040;18.244;2023-07-13T12:02:47;3.70;;;1.10;;
57327;SDS011;43162;51.040;18.244;2023-07-13T12:05:15;2.00;;;1.20;;
57327;SDS011;43162;51.040;18.244;2023-07-13T12:07:41;2.10;;;1.20;;
57327;SDS011;43162;51.040;18.244;2023-07-13T12:12:59;2.20;;;1.40;;
57327;SDS011;43162;51.040;18.244;2023-07-13T12:15:44;4.70;;;1.10;;
57327;SDS011;43162;51.040;18.244;2023-07-13T12:20:40;3.50;;;1.20;;
57327;SDS011;43162;51.040;18.244;2023-07-13T12:23:10;2.80;;;1.00;;
57327;SDS011;43162;51.040;18.244;2023-07-13T12:25:40;1.30;;;1.10;;
57327;SDS011;43162;51.040;18.244;2023-07-13T12:28:22;2.90;;;1.00;;
57327;SDS011;43162;51.040;18.244;2023-07-13T12:30:48;1.10;;;1.00;;
57327;SDS011;43162;51.040;18.244;2023-07-13T12:33:14;2.20;;;1.10;;
57327;SDS011;43162;51.040;18.244;2023-07-13T12:35:40;5.70;;;0.80;;
57327;SDS011;43162;51.040;18.244;2023-07-13T12:38:07;2.20;;;0.80;;
57327;SDS011;43162;51.040;18.244;2023-07-13T12:40:34;4.20;;;0.90;;
57327;SDS011;43162;51.040;18.244;2023-07-13T12:43:00;4.00;;;0.90;;
57327;SDS011;43162;51.040;18.244;2023-07-13T12:45:29;6.90;;;0.90;;
57327;SDS011;43162;51.040;18.244;2023-07-13T12:47:57;1.10;;;1.00;;
57327;SDS011;43162;51.040;18.244;2023-07-13T12:50:28;1.60;;;0.90;;
57327;SDS011;43162;51.040;18.244;2023-07-13T12:52:56;2.50;;;0.90;;
57327;SDS011;43162;51.040;18.244;2023-07-13T12:55:23;3.00;;;0.80;;
57327;SDS011;43162;51.040;18.244;2023-07-13T12:57:55;2.60;;;0.80;;
57327;SDS011;43162;51.040;18.244;2023-07-13T13:00:26;5.20;;;1.00;;
57327;SDS011;43162;51.040;18.244;2023-07-13T13:02:54;4.20;;;0.70;;
57327;SDS011;43162;51.040;18.244;2023-07-13T13:05:21;5.40;;;1.00;;
57327;SDS011;43162;51.040;18.244;2023-07-13T13:07:49;2.70;;;1.00;;
57327;SDS011;43162;51.040;18.244;2023-07-13T13:10:14;3.70;;;0.90;;
57327;SDS011;43162;51.040;18.244;2023-07-13T13:12:41;2.20;;;0.80;;
57327;SDS011;43162;51.040;18.244;2023-07-13T13:15:09;3.50;;;1.10;;
57327;SDS011;43162;51.040;18.244;2023-07-13T13:17:37;3.10;;;0.80;;
57327;SDS011;43162;51.040;18.244;2023-07-13T13:20:16;2.00;;;1.00;;
57327;SDS011;43162;51.040;18.244;2023-07-13T13:22:44;1.50;;;0.70;;
57327;SDS011;43162;51.040;18.244;2023-07-13T13:25:10;0.90;;;0.80;;
57327;SDS011;43162;51.040;18.244;2023-07-13T13:27:36;1.60;;;0.70;;
57327;SDS011;43162;51.040;18.244;2023-07-13T13:30:02;1.60;;;0.70;;
57327;SDS011;43162;51.040;18.244;2023-07-13T13:32:28;2.50;;;0.80;;
57327;SDS011;43162;51.040;18.244;2023-07-13T13:34:53;2.80;;;0.70;;
57327;SDS011;43162;51.040;18.244;2023-07-13T13:37:22;2.50;;;0.70;;
57327;SDS011;43162;51.040;18.244;2023-07-13T13:39:49;2.50;;;0.90;;
57327;SDS011;43162;51.040;18.244;2023-07-13T13:42:15;3.50;;;0.80;;
57327;SDS011;43162;51.040;18.244;2023-07-13T13:44:40;1.30;;;1.00;;
57327;SDS011;43162;51.040;18.244;2023-07-13T13:47:07;2.40;;;1.00;;
57327;SDS011;43162;51.040;18.244;2023-07-13T13:49:37;1.50;;;0.90;;
57327;SDS011;43162;51.040;18.244;2023-07-13T13:52:04;1.80;;;0.70;;
57327;SDS011;43162;51.040;18.244;2023-07-13T13:54:29;1.20;;;1.10;;
57327;SDS011;43162;51.040;18.244;2023-07-13T13:56:55;4.30;;;0.90;;
57327;SDS011;43162;51.040;18.244;2023-07-13T13:59:21;1.40;;;0.80;;
57327;SDS011;43162;51.040;18.244;2023-07-13T14:01:46;1.50;;;0.80;;
57327;SDS011;43162;51.040;18.244;2023-07-13T14:04:19;3.90;;;0.90;;
57327;SDS011;43162;51.040;18.244;2023-07-13T14:06:46;2.80;;;1.10;;
57327;SDS011;43162;51.040;18.244;2023-07-13T14:09:14;4.00;;;1.00;;
57327;SDS011;43162;51.040;18.244;2023-07-13T14:11:40;4.00;;;1.40;;
57327;SDS011;43162;51.040;18.244;2023-07-13T14:14:14;2.80;;;1.00;;
57327;SDS011;43162;51.040;18.244;2023-07-13T14:16:41;2.50;;;1.50;;
57327;SDS011;43162;51.040;18.244;2023-07-13T14:19:10;2.30;;;1.10;;
57327;SDS011;43162;51.040;18.244;2023-07-13T14:21:36;2.30;;;1.20;;
57327;SDS011;43162;51.040;18.244;2023-07-13T14:24:02;2.50;;;1.20;;
57327;SDS011;43162;51.040;18.244;2023-07-13T14:26:27;2.80;;;0.90;;
57327;SDS011;43162;51.040;18.244;2023-07-13T14:28:54;2.10;;;1.20;;
57327;SDS011;43162;51.040;18.244;2023-07-13T14:31:20;1.50;;;0.90;;
57327;SDS011;43162;51.040;18.244;2023-07-13T14:33:46;1.90;;;1.00;;
57327;SDS011;43162;51.040;18.244;2023-07-13T14:38:54;4.50;;;1.20;;
57327;SDS011;43162;51.040;18.244;2023-07-13T14:41:20;1.40;;;1.10;;
57327;SDS011;43162;51.040;18.244;2023-07-13T14:43:46;2.20;;;0.90;;
57327;SDS011;43162;51.040;18.244;2023-07-13T14:49:15;1.70;;;1.40;;
57327;SDS011;43162;51.040;18.244;2023-07-13T14:51:42;3.30;;;1.10;;
57327;SDS011;43162;51.040;18.244;2023-07-13T14:54:08;1.40;;;1.00;;
57327;SDS011;43162;51.040;18.244;2023-07-13T14:56:34;1.30;;;1.00;;
57327;SDS011;43162;51.040;18.244;2023-07-13T14:58:59;3.00;;;1.10;;
57327;SDS011;43162;51.040;18.244;2023-07-13T15:01:25;2.90;;;1.10;;
57327;SDS011;43162;51.040;18.244;2023-07-13T15:03:51;3.50;;;1.40;;
57327;SDS011;43162;51.040;18.244;2023-07-13T15:06:17;3.70;;;1.60;;
57327;SDS011;43162;51.040;18.244;2023-07-13T15:08:44;1.70;;;1.00;;